首页
METAR-TAF:

METAR-TAF

机场 :

弗洛雷讷, 比利时

纬度: 50-14N, 经度: 004-39E, 海拔: 279米

当前天气观测

该预报发布于39分钟前的15:25 UTC
风速11节,风向西北
温度 10°C
湿度 82%
气压 997 hPa
能见度10公里或以上
少量云层高于1500英尺
散云层高于3200英尺
多云层高于5500英尺

METAR: EBFS 051525Z 31011KT 9999 FEW015 SCT032 BKN055 10/07 Q0997 BLU BLU TEMPO WHT

时间: 18:04 (16:04 UTC)

预报

该预报发布于4小时和23分钟前的11:41 UTC
预报有效从05日的 13点(UTC)到 05日的 22点(UTC)
风速10节,风向西南,有时为20节阵风
能見度: 7000
少量云层高于1200英尺
散云层高于1500英尺
多云层高于2000英尺
成为
从 05日的 13点(UTC)到 05日的 15点(UTC)
风速10节,风向西,有时为20节阵风
能见度10公里或以上
少量云层高于3000英尺
散云层高于5000英尺
几率 40% :
短暂存在
从 05日的 13点(UTC)到 05日的 18点(UTC)
风速15节,风向西,有时为25节阵风
能見度: 5000
散云层高于2500英尺, 塔状积云.
散云层高于5000英尺
小阵雨
几率 40% :
短暂存在
从 05日的 18点(UTC)到 05日的 22点(UTC)
风速15节,风向西,有时为35节阵风
能見度: 4000
散云层高于2000英尺, 塔状积云.
多云层高于4000英尺
阵雨

TAF: EBFS 051141Z 0513/0522 22010G20KT 7000 FEW012 SCT015 BKN020 BECMG 0513/0515 27010G20KT 9999 FEW030 SCT050 PROB40 TEMPO 0513/0518 27015G25KT 5000 -SHRA SCT025TCU SCT050 PROB40 TEMPO 0518/0522 28015G35KT 4000 SHRA SCT020TCU BKN040

超过4000个机场的气象观测和天气预报(METAR&TAF报告)。

可查询的气象台以黄色和红色小点在地图上表示。

将鼠标移到小点上方,可查看气象台名称。

然后点击查看天气观测和预报。

如需切换地图:点击带黑十字的绿色按钮放大地图;点击带横线的绿色按钮缩小地图;或者点击绿色箭头查看邻近地区的地图。


METAR-TAF: